createdAt,value
2019-02-12T00:01:50.813Z,102650.14
2019-02-12T00:04:20.049Z,102640.95
2019-02-12T00:06:49.346Z,102651.89
2019-02-12T00:09:18.671Z,102655.31
2019-02-12T00:11:47.959Z,102656.62
2019-02-12T00:14:17.197Z,102643.89
2019-02-12T00:16:46.454Z,102656.14
2019-02-12T00:19:15.761Z,102654.31
2019-02-12T00:21:45.039Z,102651.17
2019-02-12T00:24:14.277Z,102669.63
2019-02-12T00:26:43.541Z,102672.99
2019-02-12T00:29:12.810Z,102661.66
2019-02-12T00:31:42.035Z,102668.30
2019-02-12T00:34:11.253Z,102653.47
2019-02-12T00:36:40.475Z,102648.67
2019-02-12T00:39:09.740Z,102654.31
2019-02-12T00:41:39.074Z,102659.52
2019-02-12T00:44:08.347Z,102666.95
2019-02-12T00:46:37.622Z,102661.63
2019-02-12T00:49:06.850Z,102663.89
2019-02-12T00:51:36.168Z,102651.13
2019-02-12T00:54:05.452Z,102658.99
2019-02-12T00:56:34.767Z,102657.20
2019-02-12T00:59:03.989Z,102650.25
2019-02-12T01:01:33.301Z,102659.39
2019-02-12T01:04:02.485Z,102678.19
2019-02-12T01:06:31.747Z,102677.71
2019-02-12T01:09:01.093Z,102676.84
2019-02-12T01:11:30.305Z,102672.07
2019-02-12T01:13:59.562Z,102679.89
2019-02-12T01:16:28.857Z,102675.88
2019-02-12T01:18:58.107Z,102674.16
2019-02-12T01:21:27.341Z,102682.88
2019-02-12T01:23:56.580Z,102674.08
2019-02-12T01:26:25.791Z,102685.00
2019-02-12T01:28:55.015Z,102680.69
2019-02-12T01:31:24.578Z,102685.92
2019-02-12T01:33:53.793Z,102675.00
2019-02-12T01:36:23.035Z,102671.02
2019-02-12T01:38:52.377Z,102671.02
2019-02-12T01:41:21.660Z,102674.52
2019-02-12T01:43:50.987Z,102678.41
2019-02-12T01:46:20.260Z,102684.17
2019-02-12T01:48:49.528Z,102677.66
2019-02-12T01:51:18.784Z,102669.80
2019-02-12T01:53:48.046Z,102668.13
2019-02-12T01:56:17.373Z,102669.75
2019-02-12T01:58:46.705Z,102671.45
2019-02-12T02:01:15.924Z,102678.40
2019-02-12T02:03:45.172Z,102689.30
2019-02-12T02:06:14.403Z,102694.97
2019-02-12T02:08:43.682Z,102693.12
2019-02-12T02:11:12.955Z,102701.97
2019-02-12T02:13:42.156Z,102702.84
2019-02-12T02:16:11.421Z,102699.73
2019-02-12T02:18:40.630Z,102696.67
2019-02-12T02:21:09.874Z,102700.22
2019-02-12T02:23:39.170Z,102697.98
2019-02-12T02:26:08.501Z,102701.97
2019-02-12T02:28:37.746Z,102708.88
2019-02-12T02:31:07.084Z,102696.62
2019-02-12T02:33:36.325Z,102697.11
2019-02-12T02:36:05.625Z,102702.75
2019-02-12T02:38:34.833Z,102707.12
2019-02-12T02:41:04.197Z,102709.34
2019-02-12T02:43:33.432Z,102706.68
2019-02-12T02:46:02.657Z,102724.59
2019-02-12T02:48:31.868Z,102722.86
2019-02-12T02:51:01.076Z,102720.63
2019-02-12T02:53:30.372Z,102722.86
2019-02-12T02:55:59.677Z,102722.86
2019-02-12T02:58:28.968Z,102725.81
2019-02-12T03:00:58.285Z,102728.30
2019-02-12T03:03:27.584Z,102723.04
2019-02-12T03:05:56.885Z,102740.53
2019-02-12T03:08:26.172Z,102743.48
2019-02-12T03:10:55.483Z,102738.46
2019-02-12T03:13:24.769Z,102743.02
2019-02-12T03:15:54.096Z,102749.78
2019-02-12T03:18:23.371Z,102745.42
2019-02-12T03:20:52.679Z,102744.03
2019-02-12T03:23:21.932Z,102734.86
2019-02-12T03:25:51.155Z,102744.03
2019-02-12T03:28:20.496Z,102742.19
2019-02-12T03:30:49.790Z,102750.91
2019-02-12T03:33:19.018Z,102757.42
2019-02-12T03:35:48.260Z,102737.75
2019-02-12T03:38:17.592Z,102744.03
2019-02-12T03:40:46.874Z,102746.66
2019-02-12T03:43:16.095Z,102753.22
2019-02-12T03:45:45.314Z,102767.52
2019-02-12T03:48:14.596Z,102754.80
2019-02-12T03:50:43.816Z,102745.14
2019-02-12T03:53:13.102Z,102751.34
2019-02-12T03:55:42.352Z,102753.48
2019-02-12T03:58:11.590Z,102771.39
2019-02-12T04:00:40.827Z,102774.77
2019-02-12T04:03:10.145Z,102771.39
2019-02-12T04:05:40.141Z,102773.62
2019-02-12T04:08:09.378Z,102770.25
2019-02-12T04:10:38.658Z,102769.77
2019-02-12T04:13:07.905Z,102760.65
2019-02-12T04:15:37.286Z,102782.36
2019-02-12T04:18:06.586Z,102790.60
2019-02-12T04:20:35.823Z,102789.73
2019-02-12T04:23:05.067Z,102797.53
2019-02-12T04:25:34.309Z,102794.52
2019-02-12T04:28:03.579Z,102804.56
2019-02-12T04:30:32.904Z,102792.30
2019-02-12T04:33:02.266Z,102800.20
2019-02-12T04:35:31.539Z,102804.34
2019-02-12T04:38:00.805Z,102813.52
2019-02-12T04:40:30.120Z,102792.16
2019-02-12T04:42:59.370Z,102804.28
2019-02-12T04:45:28.650Z,102804.41
2019-02-12T04:47:58.024Z,102809.20
2019-02-12T04:50:27.285Z,102807.51
2019-02-12T04:52:56.617Z,102812.81
2019-02-12T04:55:25.892Z,102807.02
2019-02-12T04:57:55.408Z,102803.47
2019-02-12T05:00:24.599Z,102815.30
2019-02-12T05:02:53.903Z,102816.19
2019-02-12T05:05:23.196Z,102814.44
2019-02-12T05:07:55.228Z,102807.89
2019-02-12T05:10:25.222Z,102811.31
2019-02-12T05:12:54.993Z,102826.10
2019-02-12T05:15:24.289Z,102820.61
2019-02-12T05:17:53.551Z,102825.80
2019-02-12T05:20:22.973Z,102820.06
2019-02-12T05:22:52.203Z,102824.86
2019-02-12T05:25:21.465Z,102828.34
2019-02-12T05:27:50.697Z,102825.78
2019-02-12T05:30:19.929Z,102827.09
2019-02-12T05:32:49.196Z,102825.30
2019-02-12T05:35:18.620Z,102838.34
2019-02-12T05:37:48.483Z,102838.39
2019-02-12T05:40:17.729Z,102833.28
2019-02-12T05:42:47.971Z,102827.16
2019-02-12T05:45:17.198Z,102832.34
2019-02-12T05:47:46.491Z,102837.51
2019-02-12T05:50:15.833Z,102838.77
2019-02-12T05:52:53.574Z,102840.53
2019-02-12T05:55:14.332Z,102845.37
2019-02-12T05:57:43.615Z,102856.54
2019-02-12T06:00:14.134Z,102846.51
2019-02-12T06:02:43.352Z,102849.61
2019-02-12T06:05:16.785Z,102855.68
2019-02-12T06:07:46.160Z,102858.78
2019-02-12T06:10:15.659Z,102871.06
2019-02-12T06:12:44.953Z,102869.64
2019-02-12T06:15:14.312Z,102866.20
2019-02-12T06:17:43.596Z,102884.49
2019-02-12T06:20:12.890Z,102868.08
2019-02-12T06:22:42.126Z,102870.25
2019-02-12T06:25:11.405Z,102877.49
2019-02-12T06:27:40.722Z,102883.35
2019-02-12T06:30:10.016Z,102889.09
2019-02-12T06:32:39.268Z,102889.91
2019-02-12T06:35:08.585Z,102899.95
2019-02-12T06:37:37.857Z,102896.97
2019-02-12T06:40:07.765Z,102888.61
2019-02-12T06:42:37.017Z,102890.04
2019-02-12T06:45:07.694Z,102897.40
2019-02-12T06:47:36.984Z,102896.09
2019-02-12T06:50:07.655Z,102899.14
2019-02-12T06:52:37.030Z,102911.37
2019-02-12T06:55:07.131Z,102907.24
2019-02-12T06:57:36.890Z,102908.06
2019-02-12T07:00:06.257Z,102914.14
2019-02-12T07:03:14.057Z,102915.86
2019-02-12T07:05:59.313Z,102912.99
2019-02-12T07:09:02.568Z,102922.78
2019-02-12T07:11:43.369Z,102919.67
2019-02-12T07:14:25.241Z,102927.55
2019-02-12T07:17:18.111Z,102927.72
2019-02-12T07:20:02.048Z,102927.65
2019-02-12T07:22:58.433Z,102932.09
2019-02-12T07:26:19.666Z,102926.98
2019-02-12T07:29:18.515Z,102940.02
2019-02-12T07:32:19.985Z,102941.23
2019-02-12T07:35:49.156Z,102934.48
2019-02-12T07:38:34.815Z,102943.66
2019-02-12T07:41:20.190Z,102960.56
2019-02-12T07:44:08.151Z,102956.20
2019-02-12T07:47:24.335Z,102956.88
2019-02-12T07:50:18.260Z,102949.63
2019-02-12T07:53:31.327Z,102963.30
2019-02-12T07:56:38.225Z,102962.68
2019-02-12T07:59:39.191Z,102968.92
2019-02-12T08:03:08.583Z,102972.96
2019-02-12T08:06:19.459Z,102970.26
2019-02-12T08:09:35.462Z,102981.27
2019-02-12T08:12:30.421Z,102984.17
2019-02-12T08:15:11.368Z,102994.92
2019-02-12T08:17:51.959Z,102990.12
2019-02-12T08:20:54.147Z,103013.20
2019-02-12T08:23:56.120Z,103018.00
2019-02-12T08:26:57.257Z,103029.13
2019-02-12T08:29:44.790Z,103031.68
2019-02-12T08:32:52.468Z,103036.86
2019-02-12T08:35:46.829Z,103041.50
2019-02-12T08:38:47.207Z,103047.48
2019-02-12T08:42:04.164Z,103044.04
2019-02-12T08:44:55.962Z,103035.92
2019-02-12T08:47:38.650Z,103043.16
2019-02-12T08:50:42.239Z,103061.40
2019-02-12T08:53:52.273Z,103065.92
2019-02-12T08:56:45.441Z,103076.98
2019-02-12T08:59:59.947Z,103073.23
2019-02-12T09:02:57.517Z,103070.53
2019-02-12T09:06:01.263Z,103068.45
2019-02-12T09:09:00.377Z,103066.27
2019-02-12T09:12:08.616Z,103075.17
2019-02-12T09:14:58.678Z,103075.34
2019-02-12T09:18:09.356Z,103074.46
2019-02-12T09:21:19.465Z,103074.17
2019-02-12T09:24:17.995Z,103072.09
2019-02-12T09:27:38.489Z,103092.57
2019-02-12T09:30:26.677Z,103082.41
2019-02-12T09:33:42.499Z,103073.16
2019-02-12T09:37:02.607Z,103074.61
2019-02-12T09:40:03.195Z,103075.60
2019-02-12T09:43:13.535Z,103076.13
2019-02-12T09:46:20.405Z,103088.16
2019-02-12T09:49:04.951Z,103073.31
2019-02-12T09:52:21.689Z,103084.90
2019-02-12T09:55:16.480Z,103085.66
2019-02-12T09:58:23.455Z,103094.25
2019-02-12T10:01:24.997Z,103103.06
2019-02-12T10:04:35.287Z,103117.22
2019-02-12T10:07:27.079Z,103117.38
2019-02-12T10:10:33.487Z,103113.83
2019-02-12T10:13:17.953Z,103121.61
2019-02-12T10:16:20.291Z,103121.46
2019-02-12T10:19:31.369Z,103129.59
2019-02-12T10:22:37.068Z,103123.66
2019-02-12T10:25:25.382Z,103117.76
2019-02-12T10:28:31.865Z,103122.83
2019-02-12T10:31:28.329Z,103135.98
2019-02-12T10:33:57.601Z,103118.45
2019-02-12T10:36:26.871Z,103125.02
2019-02-12T10:38:56.143Z,103142.98
2019-02-12T10:41:25.357Z,103152.63
2019-02-12T10:43:54.627Z,103148.00
2019-02-12T10:46:23.919Z,103139.58
2019-02-12T10:48:53.101Z,103140.65
2019-02-12T10:51:22.492Z,103139.16
2019-02-12T10:53:51.700Z,103145.42
2019-02-12T10:56:20.999Z,103133.85
2019-02-12T10:58:50.293Z,103148.06
2019-02-12T11:01:19.695Z,103135.25
2019-02-12T11:03:48.977Z,103133.95
2019-02-12T11:06:18.303Z,103135.71
2019-02-12T11:08:47.708Z,103137.75
2019-02-12T11:11:17.051Z,103134.64
2019-02-12T11:13:46.398Z,103123.03
2019-02-12T11:16:15.653Z,103125.45
2019-02-12T11:18:45.065Z,103131.64
2019-02-12T11:21:14.346Z,103138.81
2019-02-12T11:23:43.570Z,103136.06
2019-02-12T11:26:12.911Z,103146.56
2019-02-12T11:28:42.211Z,103146.81
2019-02-12T11:31:11.555Z,103135.44
2019-02-12T11:33:40.827Z,103132.33
2019-02-12T11:36:10.129Z,103139.73
2019-02-12T11:38:39.368Z,103137.20
2019-02-12T11:41:08.653Z,103132.80
2019-02-12T11:43:37.905Z,103131.87
2019-02-12T11:46:07.219Z,103132.83
2019-02-12T11:48:36.425Z,103127.08
2019-02-12T11:51:05.725Z,103128.88
2019-02-12T11:53:35.017Z,103128.88
2019-02-12T11:56:04.265Z,103127.73
2019-02-12T11:58:33.483Z,103135.19
2019-02-12T12:01:03.794Z,103125.58
2019-02-12T12:03:33.077Z,103121.61
2019-02-12T12:06:02.321Z,103128.66
2019-02-12T12:08:31.663Z,103122.05
2019-02-12T12:11:00.944Z,103136.62
2019-02-12T12:13:30.289Z,103122.08
2019-02-12T12:15:59.551Z,103119.42
2019-02-12T12:18:28.783Z,103126.03
2019-02-12T12:20:58.045Z,103138.27
2019-02-12T12:23:27.405Z,103150.33
2019-02-12T12:25:56.683Z,103131.25
2019-02-12T12:28:25.952Z,103182.19
2019-02-12T12:30:55.275Z,103125.63
2019-02-12T12:33:24.643Z,103125.63
2019-02-12T12:35:53.923Z,103123.02
2019-02-12T12:38:23.133Z,103133.95
2019-02-12T12:40:52.377Z,103120.33
2019-02-12T12:43:21.673Z,103132.20
2019-02-12T12:45:50.943Z,103128.08
2019-02-12T12:48:20.219Z,103116.75
2019-02-12T12:50:49.453Z,103116.75
2019-02-12T12:53:18.784Z,103121.20
2019-02-12T12:55:47.999Z,103121.06
2019-02-12T12:58:17.313Z,103124.36
2019-02-12T13:00:46.527Z,103137.77
2019-02-12T13:03:15.848Z,103149.73
2019-02-12T13:05:45.169Z,103129.60
2019-02-12T13:08:14.485Z,103136.13
2019-02-12T13:10:44.656Z,103134.41
2019-02-12T13:13:12.997Z,103145.39
2019-02-12T13:15:42.213Z,103136.04
2019-02-12T13:18:11.466Z,103141.41
2019-02-12T13:20:40.792Z,103155.77
2019-02-12T13:23:10.031Z,103149.45
2019-02-12T13:25:39.339Z,103158.73
2019-02-12T13:28:08.666Z,103158.52
2019-02-12T13:30:37.967Z,103158.52
2019-02-12T13:33:07.251Z,103160.42
2019-02-12T13:35:36.569Z,103171.91
2019-02-12T13:38:05.897Z,103175.69
2019-02-12T13:40:35.219Z,103166.48
2019-02-12T13:43:04.474Z,103170.22
2019-02-12T13:45:33.751Z,103176.30
2019-02-12T13:48:03.142Z,103183.67
2019-02-12T13:50:32.375Z,103180.86
2019-02-12T13:53:01.615Z,103178.23
2019-02-12T13:55:30.858Z,103182.36
2019-02-12T13:58:00.141Z,103188.80
2019-02-12T14:00:29.428Z,103181.77
2019-02-12T14:02:58.705Z,103188.62
2019-02-12T14:05:28.012Z,103187.22
2019-02-12T14:07:57.301Z,103186.67
2019-02-12T14:10:26.577Z,103191.10
2019-02-12T14:12:55.875Z,103188.98
2019-02-12T14:15:25.121Z,103187.19
2019-02-12T14:17:56.047Z,103196.00
2019-02-12T14:20:23.671Z,103191.66
2019-02-12T14:22:52.981Z,103201.50
2019-02-12T14:25:25.593Z,103196.56
2019-02-12T14:27:51.601Z,103201.36
2019-02-12T14:30:20.990Z,103197.40
2019-02-12T14:32:50.419Z,103204.14
2019-02-12T14:35:19.683Z,103198.87
2019-02-12T14:37:48.924Z,103202.93
2019-02-12T14:40:18.142Z,103202.20
2019-02-12T14:42:47.403Z,103200.88
2019-02-12T14:45:16.665Z,103202.70
2019-02-12T14:47:46.011Z,103202.59
2019-02-12T14:50:15.245Z,103202.63
2019-02-12T14:52:44.521Z,103204.34
2019-02-12T14:55:13.896Z,103199.00
2019-02-12T14:57:43.181Z,103205.59
2019-02-12T15:00:12.866Z,103206.06
2019-02-12T15:02:42.218Z,103197.25
2019-02-12T15:05:11.503Z,103205.55
2019-02-12T15:07:40.809Z,103205.03
2019-02-12T15:10:10.823Z,103198.12
2019-02-12T15:12:40.123Z,103197.16
2019-02-12T15:15:09.645Z,103199.87
2019-02-12T15:17:38.932Z,103200.40
2019-02-12T15:20:08.526Z,103201.31
2019-02-12T15:22:37.805Z,103193.41
2019-02-12T15:25:07.376Z,103193.89
2019-02-12T15:27:36.619Z,103210.53
2019-02-12T15:30:10.349Z,103183.67
2019-02-12T15:32:39.645Z,103186.67
2019-02-12T15:35:09.708Z,103182.64
2019-02-12T15:37:41.852Z,103181.24
2019-02-12T15:40:12.479Z,103198.36
2019-02-12T15:42:41.773Z,103206.58
2019-02-12T15:45:13.118Z,103209.21
2019-02-12T15:47:42.346Z,103214.48
2019-02-12T15:50:11.629Z,103215.75
2019-02-12T15:52:40.939Z,103224.88
2019-02-12T15:55:11.292Z,103232.30
2019-02-12T15:57:43.108Z,103225.63
2019-02-12T16:00:15.751Z,103229.05
2019-02-12T16:02:44.162Z,103226.55
2019-02-12T16:05:13.563Z,103215.93
2019-02-12T16:07:44.666Z,103228.31
2019-02-12T16:10:14.900Z,103226.46
2019-02-12T16:12:43.124Z,103220.27
2019-02-12T16:15:14.271Z,103228.92
2019-02-12T16:17:43.555Z,103224.98
2019-02-12T16:20:12.864Z,103234.14
2019-02-12T16:22:42.159Z,103224.78
2019-02-12T16:25:11.434Z,103219.03
2019-02-12T16:27:40.759Z,103227.23
2019-02-12T16:30:12.638Z,103232.53
2019-02-12T16:32:41.873Z,103238.53
2019-02-12T16:35:12.355Z,103234.92
2019-02-12T16:37:41.650Z,103233.84
2019-02-12T16:40:11.662Z,103243.92
2019-02-12T16:42:40.931Z,103237.02
2019-02-12T16:45:13.141Z,103240.02
2019-02-12T16:47:42.474Z,103233.80
2019-02-12T16:50:11.720Z,103241.20
2019-02-12T16:52:40.971Z,103249.09
2019-02-12T16:55:10.324Z,103249.58
2019-02-12T16:57:39.637Z,103241.14
2019-02-12T17:00:11.780Z,103242.56
2019-02-12T17:02:41.024Z,103244.25
2019-02-12T17:05:11.313Z,103245.13
2019-02-12T17:07:40.558Z,103250.18
2019-02-12T17:10:09.901Z,103255.00
2019-02-12T17:12:39.144Z,103264.53
2019-02-12T17:15:09.217Z,103250.02
2019-02-12T17:17:38.571Z,103258.73
2019-02-12T17:20:10.709Z,103258.13
2019-02-12T17:22:39.925Z,103266.82
2019-02-12T17:25:10.015Z,103267.22
2019-02-12T17:27:44.726Z,103257.06
2019-02-12T17:30:14.054Z,103258.59
2019-02-12T17:32:43.395Z,103254.53
2019-02-12T17:35:12.671Z,103256.59
2019-02-12T17:37:41.912Z,103254.73
2019-02-12T17:40:11.759Z,103260.75
2019-02-12T17:42:40.992Z,103257.67
2019-02-12T17:45:11.806Z,103262.38
2019-02-12T17:47:41.065Z,103260.98
2019-02-12T17:50:11.017Z,103270.56
2019-02-12T17:52:40.364Z,103268.37
2019-02-12T17:55:09.650Z,103267.88
2019-02-12T17:57:38.932Z,103263.87
2019-02-12T18:00:12.966Z,103273.98
2019-02-12T18:02:42.269Z,103266.17
2019-02-12T18:05:11.562Z,103263.93
2019-02-12T18:07:40.865Z,103267.48
2019-02-12T18:10:10.157Z,103267.88
2019-02-12T18:12:39.429Z,103264.36
2019-02-12T18:15:09.472Z,103266.56
2019-02-12T18:17:38.781Z,103269.86
2019-02-12T18:20:08.584Z,103264.51
2019-02-12T18:22:37.861Z,103267.48
2019-02-12T18:25:08.069Z,103266.58
2019-02-12T18:27:37.324Z,103268.55
2019-02-12T18:30:08.888Z,103267.31
2019-02-12T18:32:38.174Z,103271.24
2019-02-12T18:35:07.438Z,103257.56
2019-02-12T18:37:36.775Z,103257.94
2019-02-12T18:40:06.587Z,103258.36
2019-02-12T18:42:35.882Z,103245.16
2019-02-12T18:45:05.493Z,103257.56
2019-02-12T18:47:34.776Z,103253.05
2019-02-12T18:50:04.909Z,103249.41
2019-02-12T18:52:34.126Z,103257.23
2019-02-12T18:55:03.408Z,103256.30
2019-02-12T18:57:32.662Z,103255.12
2019-02-12T19:00:01.900Z,103258.92
2019-02-12T19:02:31.222Z,103264.30
2019-02-12T19:05:00.489Z,103269.77
2019-02-12T19:07:29.714Z,103266.31
2019-02-12T19:09:59.001Z,103274.31
2019-02-12T19:12:28.445Z,103267.63
2019-02-12T19:14:57.699Z,103263.68
2019-02-12T19:17:27.103Z,103263.63
2019-02-12T19:19:56.357Z,103261.81
2019-02-12T19:22:25.612Z,103264.05
2019-02-12T19:24:54.929Z,103258.42
2019-02-12T19:27:24.337Z,103267.11
2019-02-12T19:29:53.639Z,103263.06
2019-02-12T19:32:22.874Z,103267.95
2019-02-12T19:34:52.147Z,103267.38
2019-02-12T19:37:21.422Z,103271.13
2019-02-12T19:39:50.694Z,103272.73
2019-02-12T19:42:19.906Z,103275.98
2019-02-12T19:44:49.157Z,103265.86
2019-02-12T19:47:18.425Z,103268.44
2019-02-12T19:49:47.655Z,103267.13
2019-02-12T19:52:16.961Z,103274.19
2019-02-12T19:54:46.205Z,103279.45
2019-02-12T19:57:15.478Z,103277.69
2019-02-12T19:59:44.825Z,103285.45
2019-02-12T20:02:14.157Z,103275.36
2019-02-12T20:04:43.405Z,103282.00
2019-02-12T20:07:12.680Z,103276.25
2019-02-12T20:09:42.019Z,103282.77
2019-02-12T20:12:11.332Z,103282.39
2019-02-12T20:14:40.639Z,103286.75
2019-02-12T20:17:09.867Z,103281.94
2019-02-12T20:19:39.137Z,103287.64
2019-02-12T20:22:08.730Z,103282.31
2019-02-12T20:24:38.029Z,103279.70
2019-02-12T20:27:07.333Z,103276.58
2019-02-12T20:29:36.696Z,103268.68
2019-02-12T20:32:05.983Z,103266.07
2019-02-12T20:34:35.349Z,103260.41
2019-02-12T20:37:07.312Z,103267.92
2019-02-12T20:39:36.540Z,103266.19
2019-02-12T20:42:05.823Z,103263.55
2019-02-12T20:44:35.195Z,103259.23
2019-02-12T20:47:04.609Z,103265.41
2019-02-12T20:49:33.871Z,103261.86
2019-02-12T20:52:03.147Z,103266.73
2019-02-12T20:54:32.424Z,103266.63
2019-02-12T20:57:01.726Z,103264.55
2019-02-12T20:59:30.972Z,103263.30
2019-02-12T21:02:00.242Z,103285.52
2019-02-12T21:04:29.473Z,103317.55
2019-02-12T21:06:58.701Z,103272.88
2019-02-12T21:09:27.995Z,103263.67
2019-02-12T21:11:57.263Z,103267.99
2019-02-12T21:14:26.532Z,103267.17
2019-02-12T21:16:55.801Z,103274.61
2019-02-12T21:19:25.158Z,103269.41
2019-02-12T21:21:54.423Z,103275.19
2019-02-12T21:24:23.735Z,103272.05
2019-02-12T21:26:52.995Z,103275.44
2019-02-12T21:29:22.365Z,103288.69
2019-02-12T21:31:51.611Z,103279.86
2019-02-12T21:34:20.857Z,103275.55
2019-02-12T21:36:50.261Z,103283.07
2019-02-12T21:39:21.643Z,103279.12
2019-02-12T21:41:50.893Z,103291.88
2019-02-12T21:44:20.163Z,103293.58
2019-02-12T21:46:49.429Z,103295.28
2019-02-12T21:49:18.683Z,103292.77
2019-02-12T21:51:47.991Z,103293.31
2019-02-12T21:54:17.283Z,103292.88
2019-02-12T21:56:46.560Z,103287.19
2019-02-12T21:59:15.877Z,103287.74
2019-02-12T22:01:45.174Z,103281.13
2019-02-12T22:04:14.430Z,103289.11
2019-02-12T22:06:43.663Z,103293.94
2019-02-12T22:09:13.007Z,103293.55
2019-02-12T22:11:42.241Z,103292.73
2019-02-12T22:14:11.531Z,103297.06
2019-02-12T22:16:40.849Z,103305.45
2019-02-12T22:19:10.108Z,103298.38
2019-02-12T22:21:39.380Z,103308.95
2019-02-12T22:24:08.735Z,103303.20
2019-02-12T22:26:38.027Z,103304.89
2019-02-12T22:29:07.447Z,103312.27
2019-02-12T22:31:36.954Z,103316.34
2019-02-12T22:34:06.439Z,103321.66
2019-02-12T22:36:36.112Z,103322.97
2019-02-12T22:39:06.835Z,103325.62
2019-02-12T22:41:36.221Z,103322.59
2019-02-12T22:44:06.021Z,103317.39
2019-02-12T22:46:35.292Z,103325.34
2019-02-12T22:49:04.823Z,103320.95
2019-02-12T22:51:34.262Z,103328.46
2019-02-12T22:54:03.631Z,103330.72
2019-02-12T22:56:33.015Z,103320.70
2019-02-12T22:59:02.548Z,103329.53
2019-02-12T23:01:37.453Z,103315.17
2019-02-12T23:04:08.582Z,103317.69
2019-02-12T23:06:37.857Z,103317.36
2019-02-12T23:09:16.122Z,103317.36
2019-02-12T23:11:45.606Z,103320.47
2019-02-12T23:14:14.824Z,103321.42
2019-02-12T23:16:44.723Z,103318.61
2019-02-12T23:19:14.233Z,103305.41
2019-02-12T23:21:43.479Z,103300.70
2019-02-12T23:24:13.199Z,103296.27
2019-02-12T23:26:47.889Z,103284.95
2019-02-12T23:29:17.740Z,103273.56
2019-02-12T23:31:47.896Z,103277.52
2019-02-12T23:34:17.357Z,103308.69
2019-02-12T23:36:50.021Z,103279.75
2019-02-12T23:39:19.553Z,103277.94
2019-02-12T23:41:49.612Z,103287.30
2019-02-12T23:44:21.733Z,103292.03
2019-02-12T23:46:51.419Z,103292.08
2019-02-12T23:49:20.879Z,103284.69
2019-02-12T23:51:50.195Z,103300.02
2019-02-12T23:54:19.492Z,103291.27
2019-02-12T23:56:48.901Z,103304.13
2019-02-12T23:59:18.394Z,103314.72
